Time;durP1;ratioP1;P1;durP2;ratioP2;P2;SDS_P1;SDS_P2;PMS_P1;PMS_P2;Temp;Humidity;BMP_temperature;BMP_pressure;BME280_temperature;BME280_humidity;BME280_pressure;Samples;Min_cycle;Max_cycle;Signal;HPM_P1;HPM_P2
2021/08/26 00:07:28;;;;;;;3.95;2.20;;;17.30;99.90;;;;;;5053158;28;20044;-67
2021/08/26 00:09:53;;;;;;;4.93;2.30;;;17.30;99.90;;;;;;5051377;28;20056;-66
2021/08/26 00:12:20;;;;;;;4.80;2.17;;;17.30;99.90;;;;;;5051786;28;20151;-67
2021/08/26 00:14:45;;;;;;;4.63;2.45;;;17.30;99.90;;;;;;5052148;28;20073;-67
2021/08/26 00:17:11;;;;;;;4.18;2.20;;;17.30;99.90;;;;;;5053186;28;20438;-66
2021/08/26 00:19:38;;;;;;;7.35;2.75;;;17.20;99.90;;;;;;5052561;28;20057;-67
2021/08/26 00:22:04;;;;;;;5.78;2.35;;;17.20;99.90;;;;;;5053125;28;20386;-67
2021/08/26 00:24:30;;;;;;;4.55;2.35;;;17.20;99.90;;;;;;5051099;28;20063;-67
2021/08/26 00:26:56;;;;;;;6.07;2.42;;;17.30;99.90;;;;;;5052614;28;20040;-66
2021/08/26 00:29:21;;;;;;;7.93;2.42;;;17.20;99.90;;;;;;5059657;28;20054;-66
2021/08/26 00:31:46;;;;;;;4.63;2.20;;;17.10;99.90;;;;;;5072746;28;20044;-67
2021/08/26 00:34:12;;;;;;;6.32;2.70;;;17.20;99.90;;;;;;5061751;28;20041;-66
2021/08/26 00:36:37;;;;;;;4.32;2.20;;;17.20;99.90;;;;;;5052431;28;20017;-67
2021/08/26 00:39:03;;;;;;;7.85;2.45;;;17.20;99.90;;;;;;5057318;28;20021;-67
2021/08/26 00:41:28;;;;;;;6.00;2.47;;;17.20;99.90;;;;;;5072013;28;20051;-67
2021/08/26 00:43:54;;;;;;;5.88;2.70;;;17.20;99.90;;;;;;5066755;28;20035;-67
2021/08/26 00:46:20;;;;;;;5.72;2.75;;;17.20;99.90;;;;;;5072304;28;20424;-67
2021/08/26 00:48:46;;;;;;;4.97;2.55;;;17.20;99.90;;;;;;5063680;28;20043;-66
2021/08/26 00:51:12;;;;;;;4.65;2.60;;;17.10;99.90;;;;;;5052277;28;20021;-66
2021/08/26 00:53:39;;;;;;;4.47;2.30;;;17.20;99.90;;;;;;5050233;28;20386;-67
2021/08/26 00:56:16;;;;;;;7.60;2.95;;;17.20;99.90;;;;;;5051965;28;20036;-67
2021/08/26 00:58:47;;;;;;;7.60;2.55;;;17.10;99.90;;;;;;5049723;28;20021;-67
2021/08/26 01:01:14;;;;;;;7.38;3.08;;;17.10;99.90;;;;;;5051386;28;20029;-66
2021/08/26 01:03:58;;;;;;;6.80;3.28;;;17.00;99.90;;;;;;5040967;28;20159;-67
2021/08/26 01:06:35;;;;;;;9.00;2.90;;;17.00;99.90;;;;;;5052247;28;20029;-67
2021/08/26 01:09:04;;;;;;;5.05;2.70;;;17.00;99.90;;;;;;5050412;28;20425;-66
2021/08/26 01:11:34;;;;;;;11.25;3.28;;;17.00;99.90;;;;;;5050672;28;20059;-67
2021/08/26 01:14:00;;;;;;;6.43;3.00;;;17.00;99.90;;;;;;5047994;28;20143;-67
2021/08/26 01:16:25;;;;;;;7.53;3.85;;;17.10;99.90;;;;;;5052037;28;20024;-67
2021/08/26 01:18:51;;;;;;;9.13;3.30;;;17.10;99.90;;;;;;5051271;28;20028;-67
2021/08/26 01:21:19;;;;;;;6.75;2.80;;;17.00;99.90;;;;;;5051884;28;20108;-67
2021/08/26 01:23:51;;;;;;;8.90;2.80;;;17.00;99.90;;;;;;5053755;28;20040;-66
2021/08/26 01:26:26;;;;;;;5.68;2.70;;;17.10;99.90;;;;;;5071897;28;20029;-67
2021/08/26 01:28:54;;;;;;;6.93;2.50;;;17.20;99.90;;;;;;5067980;28;20071;-67
2021/08/26 01:31:21;;;;;;;6.50;2.97;;;17.10;99.90;;;;;;5071349;28;20063;-66
2021/08/26 01:33:54;;;;;;;7.20;2.92;;;17.00;99.90;;;;;;5063891;28;20033;-66
2021/08/26 01:36:23;;;;;;;7.55;2.80;;;17.10;99.90;;;;;;5051576;28;20029;-65
2021/08/26 01:38:50;;;;;;;7.13;2.90;;;17.10;99.90;;;;;;5053839;28;20024;-65
2021/08/26 01:41:16;;;;;;;8.50;3.42;;;17.10;99.90;;;;;;5069821;28;20056;-66
2021/08/26 01:43:47;;;;;;;6.05;2.90;;;17.10;99.90;;;;;;5068071;28;20051;-66
2021/08/26 01:46:16;;;;;;;6.88;2.92;;;17.00;99.90;;;;;;5062753;28;20060;-66
2021/08/26 01:48:45;;;;;;;8.60;3.20;;;17.10;99.90;;;;;;5068532;28;20116;-66
2021/08/26 01:51:11;;;;;;;7.38;2.75;;;17.10;99.90;;;;;;5071281;28;20032;-66
2021/08/26 01:53:36;;;;;;;7.68;3.13;;;17.10;99.90;;;;;;5050455;28;20416;-65
2021/08/26 01:56:02;;;;;;;6.65;2.83;;;17.10;99.90;;;;;;5050081;28;20029;-65
2021/08/26 01:58:27;;;;;;;8.15;3.13;;;17.10;99.90;;;;;;5063477;28;20044;-65
2021/08/26 02:00:53;;;;;;;10.85;3.78;;;17.10;99.90;;;;;;5071347;28;20047;-67
2021/08/26 02:03:18;;;;;;;7.53;3.28;;;17.10;99.90;;;;;;5043481;28;20034;-67
2021/08/26 02:05:44;;;;;;;8.95;4.20;;;17.10;99.90;;;;;;5031164;28;20025;-67
2021/08/26 02:08:09;;;;;;;7.80;3.35;;;17.10;99.90;;;;;;5045236;28;20024;-67
2021/08/26 02:10:35;;;;;;;8.45;3.35;;;17.10;99.90;;;;;;5048627;28;20021;-67
2021/08/26 02:13:00;;;;;;;8.02;3.38;;;17.10;99.90;;;;;;5051069;28;20036;-67
2021/08/26 02:15:26;;;;;;;11.95;4.18;;;17.00;99.90;;;;;;5061275;28;20033;-67
2021/08/26 02:17:51;;;;;;;10.15;4.05;;;17.00;99.90;;;;;;5053535;28;20025;-67
2021/08/26 02:20:17;;;;;;;13.45;4.68;;;17.00;99.90;;;;;;5055350;28;20107;-67
2021/08/26 02:22:43;;;;;;;8.18;3.33;;;17.00;99.90;;;;;;5054570;28;20550;-67
2021/08/26 02:25:09;;;;;;;11.73;4.35;;;17.00;99.90;;;;;;5054800;28;20362;-66
2021/08/26 02:27:35;;;;;;;14.77;4.43;;;17.00;99.90;;;;;;5061917;28;20021;-66
2021/08/26 02:30:00;;;;;;;10.38;3.30;;;17.00;99.90;;;;;;5072114;28;20063;-66
2021/08/26 02:32:29;;;;;;;7.28;3.60;;;17.00;99.90;;;;;;5071001;28;20025;-66
2021/08/26 02:34:57;;;;;;;15.23;4.20;;;17.10;99.90;;;;;;5074440;28;20083;-67
2021/08/26 02:37:22;;;;;;;7.53;3.75;;;17.10;99.90;;;;;;5064326;28;20024;-67
2021/08/26 02:39:48;;;;;;;5.43;3.38;;;17.10;99.90;;;;;;5063446;28;20024;-67
2021/08/26 02:42:13;;;;;;;10.27;2.90;;;17.00;99.90;;;;;;5055308;28;20021;-66
2021/08/26 02:44:39;;;;;;;11.55;3.78;;;17.00;99.90;;;;;;5054383;28;20108;-66
2021/08/26 02:47:04;;;;;;;8.23;3.58;;;17.00;99.90;;;;;;5057944;28;20034;-66
2021/08/26 02:49:30;;;;;;;8.70;4.68;;;17.00;99.90;;;;;;5074728;28;20024;-65
2021/08/26 02:51:56;;;;;;;11.15;3.83;;;16.90;99.90;;;;;;5067626;28;20381;-67
2021/08/26 02:54:21;;;;;;;9.73;3.80;;;16.90;99.90;;;;;;5053952;28;20056;-64
2021/08/26 02:56:47;;;;;;;8.15;3.47;;;16.80;99.90;;;;;;5054507;28;20029;-67
2021/08/26 02:59:12;;;;;;;7.75;3.30;;;16.90;99.90;;;;;;5074546;28;20436;-66
2021/08/26 03:01:37;;;;;;;11.63;3.70;;;16.90;99.90;;;;;;5070148;28;20029;-67
2021/08/26 03:04:03;;;;;;;10.10;3.50;;;16.80;99.90;;;;;;5054029;28;20512;-66
2021/08/26 03:06:29;;;;;;;11.35;3.58;;;16.90;99.90;;;;;;5052583;28;20025;-67
2021/08/26 03:08:54;;;;;;;10.15;3.85;;;16.90;99.90;;;;;;5074433;28;20028;-66
2021/08/26 03:11:19;;;;;;;10.05;3.55;;;16.90;99.90;;;;;;5060270;28;20025;-66
2021/08/26 03:13:45;;;;;;;9.05;3.90;;;16.90;99.90;;;;;;5053315;28;20040;-66
2021/08/26 03:16:11;;;;;;;14.27;4.50;;;16.90;99.90;;;;;;5053528;28;20024;-66
2021/08/26 03:18:36;;;;;;;14.80;5.15;;;16.90;99.90;;;;;;5052851;28;20388;-67
2021/08/26 03:21:02;;;;;;;7.47;3.88;;;16.80;99.90;;;;;;5067550;28;20032;-67
2021/08/26 03:23:27;;;;;;;11.77;3.97;;;16.80;99.90;;;;;;5070957;28;20107;-67
2021/08/26 03:25:52;;;;;;;7.20;4.18;;;16.70;99.90;;;;;;5073760;28;20354;-67
2021/08/26 03:28:20;;;;;;;13.85;4.32;;;16.70;99.90;;;;;;5071472;28;20044;-67
2021/08/26 03:30:46;;;;;;;10.95;4.55;;;16.70;99.90;;;;;;5074195;28;20045;-66
2021/08/26 03:33:11;;;;;;;9.82;4.22;;;16.60;99.90;;;;;;5056440;28;20132;-66
2021/08/26 03:35:37;;;;;;;12.02;4.93;;;16.60;99.90;;;;;;5053462;28;20025;-66
2021/08/26 03:38:03;;;;;;;13.60;4.78;;;16.60;99.90;;;;;;5064898;28;20123;-67
2021/08/26 03:40:29;;;;;;;14.82;4.10;;;16.60;99.90;;;;;;5062154;28;20032;-67
2021/08/26 03:42:55;;;;;;;11.93;4.30;;;16.60;99.90;;;;;;5053207;28;20052;-66
2021/08/26 03:45:20;;;;;;;11.05;4.20;;;16.60;99.90;;;;;;5051356;28;20531;-67
2021/08/26 03:47:46;;;;;;;14.63;4.93;;;16.50;99.90;;;;;;5060169;28;20024;-66
2021/08/26 03:50:11;;;;;;;12.20;4.45;;;16.50;99.90;;;;;;5063614;28;20079;-67
2021/08/26 03:52:37;;;;;;;12.73;4.25;;;16.60;99.90;;;;;;5060483;28;20043;-66
2021/08/26 03:55:03;;;;;;;8.68;3.75;;;16.60;99.90;;;;;;5073408;28;20039;-67
2021/08/26 03:57:28;;;;;;;13.05;4.20;;;16.60;99.90;;;;;;5069471;28;20048;-67
2021/08/26 03:59:54;;;;;;;9.25;4.88;;;16.60;99.90;;;;;;5071350;28;20485;-66
2021/08/26 04:02:19;;;;;;;13.05;5.28;;;16.60;99.90;;;;;;5061251;28;20021;-66
2021/08/26 04:04:45;;;;;;;9.43;4.55;;;16.60;99.90;;;;;;5052792;28;20025;-66
2021/08/26 04:07:11;;;;;;;13.73;5.40;;;16.70;99.90;;;;;;5051445;28;20023;-67
2021/08/26 04:09:37;;;;;;;18.60;4.93;;;16.70;99.90;;;;;;5071228;28;20028;-67
2021/08/26 04:12:03;;;;;;;14.30;5.18;;;16.70;99.90;;;;;;5069752;28;20032;-67
2021/08/26 04:14:28;;;;;;;14.82;5.53;;;16.70;99.90;;;;;;5072636;28;20036;-67
2021/08/26 04:16:53;;;;;;;16.08;5.28;;;16.70;99.90;;;;;;5066488;28;20074;-67
2021/08/26 04:19:19;;;;;;;12.60;4.53;;;16.70;99.90;;;;;;5051892;28;20504;-67
2021/08/26 04:21:44;;;;;;;15.73;4.78;;;16.70;99.90;;;;;;5064731;28;20017;-67
2021/08/26 04:24:10;;;;;;;17.20;5.00;;;16.60;99.90;;;;;;5072536;28;20533;-67
2021/08/26 04:26:35;;;;;;;12.00;4.32;;;16.60;99.90;;;;;;5068277;28;20032;-67
2021/08/26 04:29:01;;;;;;;10.73;4.80;;;16.60;99.90;;;;;;5052741;28;20025;-66
2021/08/26 04:31:26;;;;;;;14.98;4.60;;;16.70;99.90;;;;;;5050456;28;20462;-67
2021/08/26 04:33:52;;;;;;;12.35;4.90;;;16.70;99.90;;;;;;5052053;28;20037;-66
2021/08/26 04:36:17;;;;;;;15.43;5.28;;;16.70;99.90;;;;;;5052640;28;20021;-66
2021/08/26 04:38:43;;;;;;;14.50;4.47;;;16.70;99.90;;;;;;5051509;28;20039;-65
2021/08/26 04:41:08;;;;;;;15.65;5.18;;;16.60;99.90;;;;;;5052429;28;20018;-66
2021/08/26 04:43:34;;;;;;;17.95;5.15;;;16.70;99.90;;;;;;5050930;28;20506;-65
2021/08/26 04:45:59;;;;;;;13.18;6.03;;;16.70;99.90;;;;;;5051143;28;20032;-65
2021/08/26 04:48:25;;;;;;;10.88;5.15;;;16.70;99.90;;;;;;5066868;28;20045;-66
2021/08/26 04:50:50;;;;;;;14.02;4.65;;;16.70;99.90;;;;;;5072132;28;20468;-66
2021/08/26 04:53:16;;;;;;;14.45;5.20;;;16.70;99.90;;;;;;5068291;28;20040;-66
2021/08/26 04:55:42;;;;;;;13.52;5.20;;;16.70;99.90;;;;;;5071384;28;20028;-66
2021/08/26 04:58:07;;;;;;;14.15;5.00;;;16.70;99.90;;;;;;5055272;28;20025;-66
2021/08/26 05:00:33;;;;;;;10.63;4.75;;;16.70;99.90;;;;;;5050703;28;20116;-66
2021/08/26 05:02:58;;;;;;;16.40;5.47;;;16.80;99.90;;;;;;5054518;28;20037;-66
2021/08/26 05:05:24;;;;;;;15.10;5.55;;;16.80;99.90;;;;;;5052253;28;20016;-66
2021/08/26 05:07:49;;;;;;;11.95;4.85;;;16.90;99.90;;;;;;5049072;28;20032;-66
2021/08/26 05:10:15;;;;;;;15.90;4.88;;;16.90;99.90;;;;;;5066810;28;20115;-66
2021/08/26 05:12:40;;;;;;;10.95;5.40;;;16.90;99.90;;;;;;5067290;28;20036;-66
2021/08/26 05:15:06;;;;;;;11.73;5.30;;;16.90;99.90;;;;;;5071647;28;20025;-66
2021/08/26 05:17:32;;;;;;;16.27;5.45;;;17.00;99.90;;;;;;5060009;28;20014;-66
2021/08/26 05:19:57;;;;;;;18.55;5.50;;;17.00;99.90;;;;;;5050686;28;20037;-66
2021/08/26 05:22:23;;;;;;;14.35;5.38;;;17.10;99.90;;;;;;5049984;28;20033;-66
2021/08/26 05:24:50;;;;;;;13.38;4.82;;;17.00;99.90;;;;;;5050889;28;20020;-66
2021/08/26 05:27:17;;;;;;;15.93;6.03;;;17.10;99.90;;;;;;5056393;28;20020;-66
2021/08/26 05:29:44;;;;;;;12.43;4.78;;;17.00;99.90;;;;;;5071482;28;20131;-66
2021/08/26 05:32:09;;;;;;;15.35;6.20;;;17.10;99.90;;;;;;5066928;28;20047;-66
2021/08/26 05:34:35;;;;;;;15.27;5.80;;;17.10;99.90;;;;;;5071300;28;20036;-66
2021/08/26 05:37:00;;;;;;;14.77;5.60;;;17.20;99.90;;;;;;5062797;28;20017;-66
2021/08/26 05:39:26;;;;;;;12.15;5.13;;;17.20;99.90;;;;;;5051718;28;20127;-66
2021/08/26 05:41:51;;;;;;;14.35;5.53;;;17.20;99.90;;;;;;5049746;28;20017;-66
2021/08/26 05:44:17;;;;;;;15.68;5.90;;;17.20;99.90;;;;;;5051486;28;20524;-66
2021/08/26 05:46:44;;;;;;;17.23;5.22;;;17.20;99.90;;;;;;5051192;28;20679;-66
2021/08/26 05:49:09;;;;;;;11.73;5.82;;;17.10;99.90;;;;;;5071243;28;20033;-67
2021/08/26 05:51:35;;;;;;;12.57;5.63;;;17.10;99.90;;;;;;5067191;28;20040;-66
2021/08/26 05:54:01;;;;;;;15.85;6.72;;;17.10;99.90;;;;;;5049266;28;20494;-67
2021/08/26 05:56:27;;;;;;;17.60;5.65;;;17.10;99.90;;;;;;5049850;28;20018;-67
2021/08/26 05:58:53;;;;;;;19.25;6.57;;;17.10;99.90;;;;;;5069277;28;20381;-67
2021/08/26 06:01:18;;;;;;;17.73;6.13;;;17.00;99.90;;;;;;5066898;28;20044;-67
2021/08/26 06:03:44;;;;;;;13.60;5.18;;;17.00;99.90;;;;;;5050168;28;20074;-67
2021/08/26 06:06:09;;;;;;;20.77;6.10;;;17.00;99.90;;;;;;5051356;28;20025;-67
2021/08/26 06:08:35;;;;;;;11.82;5.20;;;17.00;99.90;;;;;;5064348;28;20511;-67
2021/08/26 06:11:00;;;;;;;18.35;4.97;;;17.00;99.90;;;;;;5071210;28;20293;-67
2021/08/26 06:13:26;;;;;;;18.50;5.22;;;17.00;99.90;;;;;;5065870;28;20390;-67
2021/08/26 06:15:52;;;;;;;10.38;4.53;;;17.10;99.90;;;;;;5069682;28;20024;-67
2021/08/26 06:18:18;;;;;;;13.30;5.18;;;17.10;99.90;;;;;;5053069;28;20608;-67
2021/08/26 06:20:44;;;;;;;18.02;5.53;;;17.20;99.90;;;;;;5051029;28;20037;-67
2021/08/26 06:23:09;;;;;;;15.70;6.35;;;17.10;99.90;;;;;;5048676;28;20064;-68
2021/08/26 06:25:35;;;;;;;14.57;4.55;;;17.20;99.90;;;;;;5051021;28;20107;-67
2021/08/26 06:28:00;;;;;;;16.20;5.35;;;17.10;99.90;;;;;;5061823;28;20310;-67
2021/08/26 06:30:27;;;;;;;11.52;4.90;;;17.20;99.90;;;;;;5071203;28;20422;-68
2021/08/26 06:32:53;;;;;;;15.48;5.13;;;17.20;99.90;;;;;;5056096;28;20021;-67
2021/08/26 06:35:19;;;;;;;14.90;5.43;;;17.20;99.90;;;;;;5049733;28;20404;-67
2021/08/26 06:37:44;;;;;;;17.00;6.40;;;17.20;99.90;;;;;;5056318;28;20031;-67
2021/08/26 06:40:11;;;;;;;12.55;5.53;;;17.30;99.90;;;;;;5071042;28;20427;-67
2021/08/26 06:42:36;;;;;;;14.77;5.55;;;17.30;99.90;;;;;;5067371;28;20403;-67
2021/08/26 06:45:03;;;;;;;10.90;4.93;;;17.30;99.80;;;;;;5068860;28;20036;-67
2021/08/26 06:47:28;;;;;;;13.02;5.35;;;17.40;99.90;;;;;;5067514;28;20395;-67
2021/08/26 06:49:54;;;;;;;19.10;5.22;;;17.40;99.80;;;;;;5070861;28;20029;-66
2021/08/26 06:52:19;;;;;;;14.07;5.00;;;17.40;99.70;;;;;;5060167;28;20021;-67
2021/08/26 06:54:44;;;;;;;19.40;5.20;;;17.40;99.60;;;;;;5050421;28;20435;-67
2021/08/26 06:57:10;;;;;;;14.05;4.13;;;17.50;99.50;;;;;;5055639;28;20032;-67
2021/08/26 06:59:35;;;;;;;10.07;4.60;;;17.50;99.50;;;;;;5070684;28;20082;-67
2021/08/26 07:02:01;;;;;;;10.55;3.95;;;17.50;99.50;;;;;;5065467;28;20104;-67
2021/08/26 07:04:26;;;;;;;12.85;4.88;;;17.60;99.50;;;;;;5052901;28;20021;-67
2021/08/26 07:06:53;;;;;;;12.75;4.30;;;17.60;99.20;;;;;;5063893;28;20065;-67
2021/08/26 07:09:20;;;;;;;9.52;4.43;;;17.60;99.20;;;;;;5074299;28;20055;-67
2021/08/26 07:11:46;;;;;;;11.63;4.30;;;17.70;99.30;;;;;;5068782;28;20033;-67
2021/08/26 07:14:11;;;;;;;15.00;4.25;;;17.70;99.00;;;;;;5053986;28;20495;-67
2021/08/26 07:16:37;;;;;;;14.82;4.20;;;17.70;98.60;;;;;;5054323;28;20025;-65
2021/08/26 07:19:02;;;;;;;11.52;4.00;;;17.70;98.90;;;;;;5072438;28;20032;-65
2021/08/26 07:21:28;;;;;;;8.55;4.20;;;17.80;98.70;;;;;;5070527;28;20373;-66
2021/08/26 07:23:53;;;;;;;10.13;4.00;;;17.80;98.70;;;;;;5033791;28;20118;-66
2021/08/26 07:26:19;;;;;;;10.98;3.97;;;17.90;98.60;;;;;;5033479;28;20498;-66
2021/08/26 07:28:45;;;;;;;8.18;3.65;;;18.00;98.40;;;;;;5052145;28;20037;-67
2021/08/26 07:31:11;;;;;;;15.02;3.78;;;18.00;98.30;;;;;;5053931;28;20424;-67
2021/08/26 07:33:36;;;;;;;7.88;3.70;;;18.10;98.30;;;;;;5035068;28;20029;-67
2021/08/26 07:36:03;;;;;;;9.43;4.10;;;18.20;98.30;;;;;;5053231;28;20229;-67
2021/08/26 07:38:29;;;;;;;14.98;4.68;;;18.30;98.20;;;;;;5034593;28;20464;-67
2021/08/26 07:40:54;;;;;;;11.05;3.80;;;18.30;97.80;;;;;;5033770;28;20207;-67
2021/08/26 07:43:21;;;;;;;11.85;3.40;;;18.40;98.00;;;;;;5047943;28;20425;-67
2021/08/26 07:45:46;;;;;;;11.60;4.35;;;18.50;97.60;;;;;;5053413;28;20068;-67
2021/08/26 07:48:12;;;;;;;10.25;3.25;;;18.50;97.50;;;;;;5036804;28;20061;-67
2021/08/26 07:50:37;;;;;;;12.55;3.80;;;18.50;97.20;;;;;;5044935;28;20033;-67
2021/08/26 07:53:03;;;;;;;6.00;3.00;;;18.50;97.20;;;;;;5049911;28;20531;-67
2021/08/26 07:55:28;;;;;;;11.13;3.22;;;18.50;97.00;;;;;;5053412;28;20075;-67
2021/08/26 07:57:54;;;;;;;8.90;3.13;;;18.50;96.60;;;;;;5050962;28;20030;-67
2021/08/26 08:00:19;;;;;;;6.35;3.03;;;18.60;96.30;;;;;;5051747;28;20025;-67
2021/08/26 08:02:45;;;;;;;10.65;3.00;;;18.70;96.50;;;;;;5046442;28;20029;-67
2021/08/26 08:05:11;;;;;;;8.05;2.40;;;18.80;96.30;;;;;;5053112;28;20047;-67
2021/08/26 08:07:42;;;;;;;9.20;2.28;;;19.00;96.10;;;;;;5041650;28;20029;-67
2021/08/26 08:10:07;;;;;;;6.50;2.63;;;19.00;95.50;;;;;;5033411;28;20430;-67
2021/08/26 08:12:33;;;;;;;9.57;3.35;;;19.10;95.60;;;;;;5027405;28;20038;-67
2021/08/26 08:14:58;;;;;;;8.68;2.78;;;19.20;95.20;;;;;;5013330;28;20338;-67
2021/08/26 08:17:24;;;;;;;5.40;2.58;;;19.20;95.20;;;;;;5027664;28;20029;-67
2021/08/26 08:19:49;;;;;;;5.97;2.47;;;19.30;95.00;;;;;;5046451;28;20113;-67
2021/08/26 08:22:15;;;;;;;6.10;2.80;;;19.20;94.60;;;;;;5038474;28;20045;-67
2021/08/26 08:24:40;;;;;;;10.88;3.97;;;19.20;94.50;;;;;;5052421;28;20067;-67
2021/08/26 08:27:06;;;;;;;9.25;2.70;;;19.20;94.00;;;;;;5045152;28;20109;-67
2021/08/26 08:29:31;;;;;;;5.30;2.47;;;19.10;94.00;;;;;;5032945;28;20026;-67
2021/08/26 08:31:57;;;;;;;4.57;2.58;;;19.00;94.10;;;;;;5035287;28;20024;-67
2021/08/26 08:34:22;;;;;;;6.53;2.80;;;18.90;93.90;;;;;;5031927;28;20033;-67
2021/08/26 08:36:48;;;;;;;10.52;2.60;;;18.80;94.00;;;;;;5031585;28;20013;-67
2021/08/26 08:39:13;;;;;;;6.85;2.55;;;18.80;94.20;;;;;;5031447;28;20108;-67
2021/08/26 08:41:39;;;;;;;8.68;2.85;;;18.80;94.40;;;;;;5033269;28;20123;-67
2021/08/26 08:44:05;;;;;;;6.53;2.63;;;19.00;94.50;;;;;;5035153;28;20511;-68
2021/08/26 08:46:34;;;;;;;8.52;3.22;;;19.20;94.40;;;;;;5024717;28;20032;-67
2021/08/26 08:49:02;;;;;;;6.55;2.95;;;19.20;94.10;;;;;;5036297;28;20043;-66
2021/08/26 08:51:29;;;;;;;6.22;2.50;;;19.30;94.40;;;;;;5022712;28;20500;-67
2021/08/26 08:53:55;;;;;;;5.53;2.00;;;19.40;93.60;;;;;;5034953;28;20048;-68
2021/08/26 08:56:26;;;;;;;4.50;1.88;;;19.40;93.00;;;;;;5036698;28;20044;-71
2021/08/26 08:58:53;;;;;;;4.20;1.77;;;19.40;92.70;;;;;;5029486;28;20029;-70
2021/08/26 09:01:18;;;;;;;7.60;2.10;;;19.30;92.40;;;;;;5027026;28;20478;-73
2021/08/26 09:03:43;;;;;;;5.80;2.03;;;19.30;93.10;;;;;;5045632;28;20032;-71
2021/08/26 09:06:09;;;;;;;4.13;1.80;;;19.20;93.20;;;;;;5040166;28;20025;-68
2021/08/26 09:08:35;;;;;;;3.38;1.75;;;19.00;93.00;;;;;;5030775;28;20041;-69
2021/08/26 09:11:17;;;;;;;2.83;1.60;;;18.90;93.40;;;;;;5034155;28;20036;-68
2021/08/26 09:13:45;;;;;;;4.05;1.50;;;18.70;93.50;;;;;;5039834;28;20123;-67
2021/08/26 09:16:11;;;;;;;3.97;2.00;;;18.70;94.10;;;;;;5040342;28;20108;-67
2021/08/26 09:18:37;;;;;;;4.03;1.42;;;18.60;94.10;;;;;;5036651;28;20029;-67
2021/08/26 09:21:05;;;;;;;2.83;1.73;;;18.50;94.30;;;;;;5038292;28;20363;-68
2021/08/26 09:23:51;;;;;;;2.10;1.20;;;18.60;94.70;;;;;;5040273;28;20032;-68
2021/08/26 09:26:19;;;;;;;2.40;1.50;;;18.60;94.70;;;;;;5041423;28;20021;-68
2021/08/26 09:28:46;;;;;;;5.50;1.73;;;18.60;95.00;;;;;;5040631;28;20371;-68
2021/08/26 09:31:16;;;;;;;2.83;1.48;;;18.70;95.20;;;;;;5036884;28;20025;-68
2021/08/26 09:33:55;;;;;;;2.78;1.20;;;18.70;95.00;;;;;;5028012;28;20076;-68
2021/08/26 09:36:26;;;;;;;3.42;2.17;;;18.80;94.80;;;;;;5039812;28;20029;-68
2021/08/26 09:38:55;;;;;;;4.88;1.63;;;18.80;94.60;;;;;;5036525;28;20389;-69
2021/08/26 09:41:41;;;;;;;4.05;1.60;;;18.80;95.00;;;;;;5038270;28;20481;-69
2021/08/26 09:44:15;;;;;;;4.07;1.75;;;18.90;94.60;;;;;;5040262;28;20437;-68
2021/08/26 09:46:44;;;;;;;5.10;1.95;;;18.90;94.50;;;;;;5041969;28;20021;-68
2021/08/26 09:49:12;;;;;;;6.05;2.08;;;18.90;94.40;;;;;;5031780;28;20036;-66
2021/08/26 09:51:39;;;;;;;4.65;1.63;;;18.90;94.40;;;;;;5036399;28;20492;-67
2021/08/26 09:54:29;;;;;;;3.80;1.80;;;19.00;94.40;;;;;;5024924;28;20053;-66
2021/08/26 09:56:55;;;;;;;2.20;1.13;;;19.10;94.10;;;;;;5029910;28;20021;-68
2021/08/26 09:59:41;;;;;;;2.65;1.23;;;19.10;92.40;;;;;;5033471;28;20513;-67
2021/08/26 10:02:06;;;;;;;4.22;1.50;;;19.20;93.10;;;;;;5028157;28;20036;-66
2021/08/26 10:04:32;;;;;;;2.72;1.10;;;19.20;92.50;;;;;;5042872;28;20025;-66
2021/08/26 10:06:58;;;;;;;1.55;0.98;;;19.30;92.00;;;;;;5035146;28;20021;-67
2021/08/26 10:09:24;;;;;;;3.42;1.48;;;19.30;92.40;;;;;;5036376;28;20025;-67
2021/08/26 10:11:50;;;;;;;1.80;1.00;;;19.40;92.20;;;;;;5032765;28;20040;-67
2021/08/26 10:14:15;;;;;;;1.67;0.90;;;19.50;92.00;;;;;;5032116;28;20407;-67
2021/08/26 10:16:42;;;;;;;2.17;1.10;;;19.50;91.40;;;;;;5028005;28;20399;-66
2021/08/26 10:19:11;;;;;;;2.53;0.85;;;19.60;91.00;;;;;;5026948;28;20021;-66
2021/08/26 10:21:37;;;;;;;1.95;1.20;;;19.50;90.50;;;;;;5035715;28;20473;-66
2021/08/26 10:24:03;;;;;;;1.95;0.90;;;19.50;91.20;;;;;;5030630;28;20033;-70
2021/08/26 10:26:30;;;;;;;1.70;0.88;;;19.60;90.50;;;;;;5039854;28;20124;-68
2021/08/26 10:28:57;;;;;;;2.15;1.17;;;19.70;90.20;;;;;;5032926;28;20021;-69
2021/08/26 10:31:32;;;;;;;2.97;1.10;;;19.80;90.50;;;;;;5032706;28;20102;-68
2021/08/26 10:34:12;;;;;;;3.67;1.00;;;19.90;90.60;;;;;;5022099;28;20029;-68
2021/08/26 10:36:45;;;;;;;1.95;0.88;;;20.00;88.90;;;;;;5036622;28;20026;-67
2021/08/26 10:39:34;;;;;;;3.10;1.00;;;20.00;88.90;;;;;;5036672;28;20026;-68
2021/08/26 10:42:32;;;;;;;1.13;0.90;;;19.90;88.30;;;;;;5032196;28;20458;-70
2021/08/26 10:45:05;;;;;;;1.55;0.90;;;19.80;86.50;;;;;;5034818;28;20095;-67
2021/08/26 10:47:49;;;;;;;1.30;1.00;;;19.70;86.50;;;;;;5036606;28;20047;-68
2021/08/26 10:50:16;;;;;;;0.63;0.50;;;19.70;87.50;;;;;;5040330;28;20033;-68
2021/08/26 10:53:03;;;;;;;1.92;0.93;;;19.70;87.80;;;;;;5038970;28;20041;-67
2021/08/26 10:55:32;;;;;;;1.88;0.98;;;19.70;88.30;;;;;;5030605;28;20041;-67
2021/08/26 10:58:23;;;;;;;2.15;1.08;;;19.80;88.90;;;;;;5026146;28;20048;-67
2021/08/26 11:00:58;;;;;;;1.63;1.08;;;19.80;88.70;;;;;;5034744;28;20100;-67
2021/08/26 11:03:45;;;;;;;2.00;1.00;;;19.80;89.30;;;;;;5033414;28;20124;-67
2021/08/26 11:06:19;;;;;;;1.80;0.68;;;19.90;88.80;;;;;;5040644;28;20036;-67
2021/08/26 11:08:47;;;;;;;1.10;0.90;;;20.00;87.10;;;;;;5040128;28;20289;-67
2021/08/26 11:11:30;;;;;;;2.00;0.93;;;20.10;86.20;;;;;;5038950;28;20104;-67
2021/08/26 11:14:05;;;;;;;2.80;1.10;;;20.10;85.70;;;;;;5038478;28;20048;-67
2021/08/26 11:16:37;;;;;;;2.10;0.90;;;20.10;85.80;;;;;;5047932;28;20021;-68
2021/08/26 11:19:07;;;;;;;1.50;1.08;;;20.10;85.70;;;;;;5039517;28;20033;-67
2021/08/26 11:21:42;;;;;;;1.67;0.93;;;20.20;85.20;;;;;;5039613;28;20064;-68
2021/08/26 11:24:11;;;;;;;2.50;0.95;;;20.20;85.70;;;;;;5034425;28;20047;-68
2021/08/26 11:27:04;;;;;;;1.05;0.73;;;20.20;84.90;;;;;;5030291;28;20040;-68
2021/08/26 11:29:29;;;;;;;1.80;0.82;;;20.20;83.30;;;;;;5028281;28;20123;-67
2021/08/26 11:31:55;;;;;;;1.17;0.80;;;20.10;82.10;;;;;;5032898;28;20488;-67
2021/08/26 11:34:33;;;;;;;1.92;1.20;;;20.10;83.10;;;;;;5035216;28;20045;-67
2021/08/26 11:37:19;;;;;;;2.08;0.88;;;20.00;81.90;;;;;;5034562;28;20025;-68
2021/08/26 11:40:01;;;;;;;2.22;1.33;;;19.90;81.50;;;;;;5031614;28;20079;-67
2021/08/26 11:42:44;;;;;;;2.80;1.20;;;19.90;81.70;;;;;;5039835;28;20078;-68
2021/08/26 11:45:28;;;;;;;1.70;1.35;;;19.90;82.00;;;;;;5033913;28;20028;-68
2021/08/26 11:48:04;;;;;;;1.45;0.75;;;20.00;82.00;;;;;;5033354;28;20049;-68
2021/08/26 11:50:40;;;;;;;2.50;0.65;;;20.10;82.20;;;;;;5034193;28;20088;-68
2021/08/26 11:53:09;;;;;;;3.30;0.70;;;20.10;81.60;;;;;;5028181;28;20129;-67
2021/08/26 11:55:40;;;;;;;0.65;0.65;;;20.00;81.10;;;;;;5030656;28;20025;-67
2021/08/26 11:58:08;;;;;;;0.95;0.63;;;20.00;81.00;;;;;;5030677;28;20316;-68
2021/08/26 12:00:38;;;;;;;1.23;0.80;;;19.90;80.10;;;;;;5031463;28;20065;-68
2021/08/26 12:03:04;;;;;;;1.98;0.60;;;19.90;80.90;;;;;;5032636;28;20128;-67
2021/08/26 12:05:30;;;;;;;1.92;1.02;;;20.00;80.30;;;;;;5044740;28;20112;-68
2021/08/26 12:07:56;;;;;;;1.70;0.90;;;20.00;80.70;;;;;;5035965;28;20026;-68
2021/08/26 12:10:30;;;;;;;1.13;0.70;;;20.00;80.80;;;;;;5033949;28;20477;-68
2021/08/26 12:13:04;;;;;;;2.55;1.30;;;20.00;81.40;;;;;;5027460;28;20108;-68
2021/08/26 12:15:48;;;;;;;1.73;0.60;;;19.90;80.70;;;;;;5037682;28;20087;-67
2021/08/26 12:18:23;;;;;;;1.25;0.70;;;19.90;81.60;;;;;;5035367;28;20057;-67
2021/08/26 12:20:54;;;;;;;2.60;1.15;;;20.00;81.10;;;;;;5037426;28;20044;-67
2021/08/26 12:23:26;;;;;;;1.15;0.80;;;20.10;82.00;;;;;;5036064;28;20068;-67
2021/08/26 12:26:06;;;;;;;3.90;0.93;;;20.10;82.30;;;;;;5034667;28;20029;-68
2021/08/26 12:28:34;;;;;;;3.30;0.85;;;20.20;81.40;;;;;;5047457;28;20047;-67
2021/08/26 12:30:59;;;;;;;2.35;0.80;;;20.10;79.40;;;;;;5035177;28;20393;-67
2021/08/26 12:33:25;;;;;;;2.67;0.63;;;20.10;77.00;;;;;;5043943;28;20033;-67
2021/08/26 12:35:57;;;;;;;0.95;0.63;;;20.00;76.00;;;;;;5034331;28;20021;-67
2021/08/26 12:38:34;;;;;;;2.00;0.80;;;19.80;76.70;;;;;;5026343;28;20030;-67
2021/08/26 12:41:08;;;;;;;2.15;0.95;;;19.90;77.40;;;;;;5046821;28;20067;-67
2021/08/26 12:43:53;;;;;;;2.17;0.67;;;19.80;77.00;;;;;;5030983;28;20037;-68
2021/08/26 12:46:27;;;;;;;4.68;0.80;;;19.90;76.50;;;;;;5031324;28;20288;-66
2021/08/26 12:49:10;;;;;;;0.82;0.52;;;19.90;77.00;;;;;;5031940;28;20057;-68
2021/08/26 12:51:50;;;;;;;1.30;0.80;;;19.80;76.80;;;;;;5041032;28;20489;-68
2021/08/26 12:54:16;;;;;;;0.95;0.63;;;19.90;76.20;;;;;;5039323;28;20057;-67